Time;durP1;ratioP1;P1;durP2;ratioP2;P2;SDS_P1;SDS_P2;PMS_P1;PMS_P2;Temp;Humidity;BMP_temperature;BMP_pressure;BME280_temperature;BME280_humidity;BME280_pressure;Samples;Min_cycle;Max_cycle;Signal;HPM_P1;HPM_P2
2022/12/21 00:02:06;;;;;;;5.70;3.53;;;5.90;99.90;;;;;;5075106;28;20021;-42
2022/12/21 00:04:31;;;;;;;6.05;3.90;;;6.00;99.90;;;;;;5074284;28;20025;-42
2022/12/21 00:06:57;;;;;;;5.30;3.70;;;5.90;99.90;;;;;;5073840;28;20077;-41
2022/12/21 00:09:23;;;;;;;4.60;3.40;;;5.90;99.90;;;;;;5074145;28;20225;-42
2022/12/21 00:11:49;;;;;;;5.38;3.75;;;5.90;99.90;;;;;;5073979;28;20114;-43
2022/12/21 00:14:15;;;;;;;5.82;3.67;;;5.90;99.90;;;;;;5073813;28;20025;-42
2022/12/21 00:16:42;;;;;;;5.47;3.47;;;6.00;99.90;;;;;;5073716;28;20028;-42
2022/12/21 00:19:09;;;;;;;5.10;3.00;;;6.00;99.90;;;;;;5073978;28;20025;-43
2022/12/21 00:21:36;;;;;;;5.13;3.53;;;6.00;99.90;;;;;;5073847;28;20025;-42
2022/12/21 00:24:03;;;;;;;5.10;3.53;;;6.00;99.90;;;;;;5073997;28;20063;-40
2022/12/21 00:26:31;;;;;;;6.57;3.30;;;6.00;99.90;;;;;;5073474;28;20066;-41
2022/12/21 00:28:57;;;;;;;5.50;3.42;;;6.00;99.90;;;;;;5073813;28;20025;-42
2022/12/21 00:31:27;;;;;;;4.78;3.20;;;6.00;99.90;;;;;;5073827;28;20025;-43
2022/12/21 00:33:53;;;;;;;4.65;3.35;;;6.00;99.90;;;;;;5073624;28;20090;-44
2022/12/21 00:36:21;;;;;;;4.97;3.30;;;6.00;99.90;;;;;;5073431;28;20060;-43
2022/12/21 00:38:47;;;;;;;5.28;3.30;;;6.00;99.90;;;;;;5073694;28;20028;-44
2022/12/21 00:41:15;;;;;;;4.72;3.03;;;6.00;99.90;;;;;;5073806;28;20094;-43
2022/12/21 00:43:43;;;;;;;5.35;3.42;;;6.00;99.90;;;;;;5073601;28;20024;-43
2022/12/21 00:46:15;;;;;;;6.72;3.58;;;6.00;99.90;;;;;;5071860;28;20029;-43
2022/12/21 00:48:41;;;;;;;6.88;3.10;;;6.00;99.90;;;;;;5073532;28;20119;-44
2022/12/21 00:51:10;;;;;;;6.47;3.10;;;6.00;99.90;;;;;;5073385;28;20052;-43
2022/12/21 00:53:36;;;;;;;6.45;3.03;;;6.00;99.90;;;;;;5073356;28;20020;-43
2022/12/21 00:56:06;;;;;;;6.60;3.47;;;6.00;99.90;;;;;;5072886;28;20452;-43
2022/12/21 00:58:33;;;;;;;4.50;3.30;;;6.00;99.90;;;;;;5073679;28;20311;-44
2022/12/21 01:01:05;;;;;;;4.80;3.10;;;6.10;99.90;;;;;;5072859;28;20028;-43
2022/12/21 01:03:31;;;;;;;5.28;3.22;;;6.10;99.90;;;;;;5073230;28;20025;-44
2022/12/21 01:05:56;;;;;;;5.45;3.08;;;6.00;99.90;;;;;;5072985;28;21636;-43
2022/12/21 01:08:24;;;;;;;4.43;3.00;;;6.10;99.90;;;;;;5072961;28;20021;-43
2022/12/21 01:11:02;;;;;;;4.80;3.17;;;6.00;99.90;;;;;;5073065;28;20032;-43
2022/12/21 01:13:30;;;;;;;5.28;3.13;;;6.00;99.90;;;;;;5073038;28;20033;-43
2022/12/21 01:15:56;;;;;;;3.72;2.88;;;6.10;99.90;;;;;;5072704;28;20021;-43
2022/12/21 01:18:22;;;;;;;4.18;2.83;;;6.10;99.90;;;;;;5073289;28;20029;-43
2022/12/21 01:20:50;;;;;;;5.30;3.33;;;6.00;99.90;;;;;;5072646;28;20028;-44
2022/12/21 01:23:17;;;;;;;4.10;2.97;;;6.00;99.90;;;;;;5072796;28;20099;-43
2022/12/21 01:25:46;;;;;;;4.43;3.00;;;6.10;99.90;;;;;;5072622;28;20039;-44
2022/12/21 01:28:12;;;;;;;5.35;3.13;;;6.00;99.90;;;;;;5072644;28;20540;-43
2022/12/21 01:30:38;;;;;;;5.88;2.92;;;6.10;99.90;;;;;;5072699;28;20029;-43
2022/12/21 01:33:06;;;;;;;4.20;2.90;;;6.10;99.90;;;;;;5072578;28;20029;-43
2022/12/21 01:35:31;;;;;;;4.85;3.13;;;6.10;99.90;;;;;;5072495;28;20032;-43
2022/12/21 01:37:57;;;;;;;4.88;3.03;;;6.10;99.90;;;;;;5072250;28;20031;-43
2022/12/21 01:40:23;;;;;;;3.97;2.92;;;6.10;99.90;;;;;;5072527;28;20025;-43
2022/12/21 01:42:48;;;;;;;6.20;3.08;;;6.10;99.90;;;;;;5072384;28;20028;-43
2022/12/21 01:45:30;;;;;;;3.92;2.78;;;6.10;99.90;;;;;;5072296;28;20024;-43
2022/12/21 01:47:57;;;;;;;4.88;2.65;;;6.10;99.90;;;;;;5072005;28;20070;-43
2022/12/21 01:50:31;;;;;;;4.88;2.80;;;6.10;99.90;;;;;;5072236;28;20036;-43
2022/12/21 01:53:01;;;;;;;4.40;2.78;;;6.10;99.90;;;;;;5072169;28;20060;-43
2022/12/21 01:55:28;;;;;;;3.70;2.65;;;6.00;99.90;;;;;;5072134;28;20039;-43
2022/12/21 01:57:54;;;;;;;5.85;3.25;;;6.10;99.90;;;;;;5071885;28;20054;-43
2022/12/21 02:00:20;;;;;;;4.30;2.90;;;6.10;99.90;;;;;;5071857;28;20497;-43
2022/12/21 02:02:57;;;;;;;4.90;3.22;;;6.10;99.90;;;;;;5072048;28;20027;-43
2022/12/21 02:05:43;;;;;;;3.90;2.90;;;6.10;99.90;;;;;;5072033;28;20036;-43
2022/12/21 02:08:10;;;;;;;4.53;2.60;;;6.10;99.90;;;;;;5071839;28;20120;-42
2022/12/21 02:10:35;;;;;;;4.80;2.83;;;6.10;99.90;;;;;;5071914;28;20027;-43
2022/12/21 02:13:05;;;;;;;4.55;2.75;;;6.10;99.90;;;;;;5071117;28;20452;-43
2022/12/21 02:16:07;;;;;;;4.88;2.80;;;6.10;99.90;;;;;;5071948;28;20016;-43
2022/12/21 02:18:32;;;;;;;3.45;2.40;;;6.10;99.90;;;;;;5071783;28;20028;-43
2022/12/21 02:21:21;;;;;;;4.55;2.50;;;6.10;99.90;;;;;;5071632;28;20093;-43
2022/12/21 02:24:20;;;;;;;5.15;2.78;;;6.10;99.90;;;;;;5071663;28;20025;-43
2022/12/21 02:27:00;;;;;;;3.83;2.80;;;6.10;99.90;;;;;;5071423;28;20078;-42
2022/12/21 02:30:10;;;;;;;4.00;2.47;;;6.10;99.90;;;;;;5072075;28;20433;-43
2022/12/21 02:32:48;;;;;;;4.50;2.60;;;6.10;99.90;;;;;;5063023;28;20051;-42
2022/12/21 02:35:13;;;;;;;4.53;2.80;;;6.10;99.90;;;;;;5071538;28;20054;-43
2022/12/21 02:37:45;;;;;;;4.35;2.80;;;6.10;99.90;;;;;;5071189;28;20103;-43
2022/12/21 02:40:10;;;;;;;3.42;2.65;;;6.10;99.90;;;;;;5071447;28;20017;-43
2022/12/21 02:45:37;;;;;;;7.30;2.85;;;6.10;99.90;;;;;;5071495;28;20444;-43
2022/12/21 02:48:24;;;;;;;4.22;2.47;;;6.10;99.90;;;;;;5071264;28;20056;-43
2022/12/21 02:50:56;;;;;;;4.85;2.67;;;6.20;99.90;;;;;;5071361;28;20031;-43
2022/12/21 02:53:40;;;;;;;5.70;2.55;;;6.20;99.90;;;;;;5071263;28;20066;-43
2022/12/21 02:56:15;;;;;;;5.70;2.83;;;6.20;99.90;;;;;;5069698;28;20032;-43
2022/12/21 02:58:41;;;;;;;3.92;2.58;;;6.10;99.90;;;;;;5071178;28;20025;-42
2022/12/21 03:01:40;;;;;;;3.30;2.55;;;6.20;99.90;;;;;;5071253;28;20027;-42
2022/12/21 03:04:25;;;;;;;3.95;2.80;;;6.20;99.90;;;;;;5071244;28;20024;-43
2022/12/21 03:07:16;;;;;;;4.65;2.95;;;6.20;99.90;;;;;;5070980;28;20501;-43
2022/12/21 03:09:50;;;;;;;2.88;2.33;;;6.20;99.90;;;;;;5061095;28;20037;-43
2022/12/21 03:12:22;;;;;;;;;;;6.20;99.90;;;;;;5071966;28;20025;-43
2022/12/21 03:15:01;;;;;;;4.47;2.40;;;6.10;99.90;;;;;;5070904;28;19904;-43
2022/12/21 03:17:41;;;;;;;3.58;2.47;;;6.20;99.90;;;;;;5070886;28;20044;-43
2022/12/21 03:20:51;;;;;;;5.05;2.50;;;6.10;99.90;;;;;;5071023;28;20028;-43
2022/12/21 03:23:34;;;;;;;4.40;2.50;;;6.10;99.90;;;;;;5049526;28;20032;-43
2022/12/21 03:26:13;;;;;;;3.13;2.40;;;6.10;99.90;;;;;;5061829;28;20028;-42
2022/12/21 03:28:43;;;;;;;4.35;2.60;;;6.10;99.90;;;;;;5074826;28;20044;-43
2022/12/21 03:31:17;;;;;;;3.78;2.50;;;6.10;99.90;;;;;;5075160;28;20028;-43
2022/12/21 03:33:51;;;;;;;3.28;2.50;;;6.10;99.90;;;;;;5074910;28;20074;-43
2022/12/21 03:36:27;;;;;;;3.28;2.42;;;6.10;99.90;;;;;;5074615;28;20068;-43
2022/12/21 03:39:10;;;;;;;3.58;2.13;;;6.10;99.90;;;;;;5074872;28;20034;-43
2022/12/21 03:41:58;;;;;;;3.92;2.20;;;6.10;99.90;;;;;;5074628;28;20409;-43
2022/12/21 03:44:35;;;;;;;3.95;2.70;;;6.10;99.90;;;;;;5074709;28;20028;-43
2022/12/21 03:47:07;;;;;;;5.75;2.72;;;6.10;99.90;;;;;;5074405;28;20020;-42
2022/12/21 03:49:39;;;;;;;3.15;2.30;;;6.20;99.90;;;;;;5074495;28;20032;-43
2022/12/21 03:52:10;;;;;;;2.53;2.13;;;6.10;99.90;;;;;;5074543;28;20081;-43
2022/12/21 03:54:47;;;;;;;3.45;2.40;;;6.10;99.90;;;;;;5074484;28;20036;-43
2022/12/21 03:57:16;;;;;;;4.47;2.58;;;6.20;99.90;;;;;;5074183;28;20024;-43
2022/12/21 03:59:45;;;;;;;5.20;2.45;;;6.20;99.90;;;;;;5074367;28;20107;-43
2022/12/21 04:02:24;;;;;;;3.95;2.20;;;6.20;99.90;;;;;;5074205;28;20024;-43
2022/12/21 04:04:53;;;;;;;4.22;2.30;;;6.10;99.90;;;;;;5074326;28;20069;-43
2022/12/21 04:07:24;;;;;;;5.60;2.45;;;6.10;99.90;;;;;;5074099;28;20054;-43
2022/12/21 04:10:05;;;;;;;5.22;2.05;;;6.10;99.90;;;;;;5074667;28;20474;-43
2022/12/21 04:12:37;;;;;;;2.90;2.30;;;6.10;99.90;;;;;;5074028;28;20123;-43
2022/12/21 04:15:06;;;;;;;3.42;2.00;;;6.10;99.90;;;;;;5074178;28;20103;-43
2022/12/21 04:17:32;;;;;;;3.15;2.17;;;6.10;99.90;;;;;;5073829;28;20064;-43
2022/12/21 04:19:58;;;;;;;4.70;2.70;;;6.10;99.90;;;;;;5074020;28;20045;-43
2022/12/21 04:28:09;;;;;;;3.15;2.20;;;6.20;99.90;;;;;;5073949;28;20049;-43
2022/12/21 04:30:42;;;;;;;3.22;2.22;;;6.10;99.90;;;;;;5073878;28;20053;-43
2022/12/21 04:33:11;;;;;;;4.80;2.42;;;6.20;99.90;;;;;;5073755;28;20128;-43
2022/12/21 04:37:30;;;;;;;3.10;2.05;;;6.20;99.90;;;;;;5072899;28;20032;-42
2022/12/21 04:38:24;;;;;;;3.60;2.22;;;6.20;99.90;;;;;;5073527;28;20029;-43
2022/12/21 04:40:53;;;;;;;5.45;2.13;;;6.20;99.90;;;;;;5073556;28;20070;-43
2022/12/21 04:43:20;;;;;;;3.30;2.20;;;6.20;99.90;;;;;;5073441;28;20016;-43
2022/12/21 04:45:45;;;;;;;4.15;2.20;;;6.20;99.90;;;;;;5073325;28;20024;-43
2022/12/21 04:48:11;;;;;;;3.55;2.20;;;6.20;99.90;;;;;;5073513;28;20020;-43
2022/12/21 04:50:40;;;;;;;3.25;2.28;;;6.20;99.90;;;;;;5073442;28;20036;-41
2022/12/21 04:53:05;;;;;;;2.72;2.20;;;6.20;99.90;;;;;;5073399;28;20082;-41
2022/12/21 04:55:31;;;;;;;4.22;2.40;;;6.20;99.90;;;;;;5073257;28;20532;-43
2022/12/21 04:57:57;;;;;;;2.83;2.03;;;6.20;99.90;;;;;;5073557;28;20660;-43
2022/12/21 05:00:22;;;;;;;3.30;2.40;;;6.20;99.90;;;;;;5073245;28;20020;-42
2022/12/21 05:02:48;;;;;;;2.58;1.88;;;6.20;99.90;;;;;;5073344;28;20028;-43
2022/12/21 05:05:14;;;;;;;4.30;2.10;;;6.20;99.90;;;;;;5073311;28;20078;-43
2022/12/21 05:07:39;;;;;;;3.38;1.92;;;6.20;99.90;;;;;;5072941;28;20025;-42
2022/12/21 05:10:05;;;;;;;2.58;1.85;;;6.20;99.90;;;;;;5073155;28;20020;-43
2022/12/21 05:12:31;;;;;;;3.33;1.95;;;6.20;99.90;;;;;;5073007;28;20032;-43
2022/12/21 05:14:57;;;;;;;3.22;2.10;;;6.20;99.90;;;;;;5073250;28;20039;-41
2022/12/21 05:17:22;;;;;;;3.75;1.75;;;6.20;99.90;;;;;;5072689;28;20089;-43
2022/12/21 05:19:48;;;;;;;3.75;1.80;;;6.20;99.90;;;;;;5072886;28;20108;-43
2022/12/21 05:22:17;;;;;;;2.72;2.30;;;6.20;99.90;;;;;;5072740;28;20036;-43
2022/12/21 05:24:44;;;;;;;3.25;1.73;;;6.20;99.90;;;;;;5072867;28;20024;-43
2022/12/21 05:27:10;;;;;;;3.45;1.95;;;6.20;99.90;;;;;;5072310;28;20020;-40
2022/12/21 05:29:36;;;;;;;2.08;1.85;;;6.20;99.90;;;;;;5072863;28;20025;-43
2022/12/21 05:32:02;;;;;;;2.33;1.85;;;6.20;99.90;;;;;;5072702;28;20532;-43
2022/12/21 05:34:27;;;;;;;3.72;2.00;;;6.20;99.90;;;;;;5072782;28;20387;-43
2022/12/21 05:36:53;;;;;;;3.42;2.03;;;6.20;99.90;;;;;;5072345;28;20067;-43
2022/12/21 05:39:18;;;;;;;2.40;1.95;;;6.20;99.90;;;;;;5072507;28;20037;-43
2022/12/21 05:41:44;;;;;;;1.88;1.42;;;6.20;99.90;;;;;;5072282;28;20036;-42
2022/12/21 05:44:10;;;;;;;2.97;2.15;;;6.20;99.90;;;;;;5072627;28;20383;-43
2022/12/21 05:46:36;;;;;;;3.22;2.10;;;6.20;99.90;;;;;;5071380;28;20017;-39
2022/12/21 05:49:01;;;;;;;2.60;2.00;;;6.20;99.90;;;;;;5072158;28;20425;-43
2022/12/21 05:51:27;;;;;;;2.00;1.52;;;6.20;99.90;;;;;;5072275;28;20029;-42
2022/12/21 05:53:53;;;;;;;3.28;2.03;;;6.20;99.90;;;;;;5072156;28;20024;-43
2022/12/21 05:56:19;;;;;;;2.55;1.80;;;6.20;99.90;;;;;;5072219;28;20037;-41
2022/12/21 05:58:44;;;;;;;2.15;1.70;;;6.20;99.90;;;;;;5072388;28;20077;-41
2022/12/21 06:01:11;;;;;;;2.08;1.73;;;6.20;99.90;;;;;;5072070;28;20437;-43
2022/12/21 06:03:37;;;;;;;2.58;1.70;;;6.30;99.90;;;;;;5072278;28;20416;-43
2022/12/21 06:06:10;;;;;;;2.53;1.75;;;6.20;99.90;;;;;;5071785;28;20029;-43
2022/12/21 06:08:37;;;;;;;2.33;1.80;;;6.20;99.90;;;;;;5071941;28;20021;-43
2022/12/21 06:11:08;;;;;;;2.20;1.90;;;6.20;99.90;;;;;;5071838;28;20028;-43
2022/12/21 06:13:34;;;;;;;5.03;1.98;;;6.30;99.90;;;;;;5071947;28;20043;-43
2022/12/21 06:16:07;;;;;;;2.75;1.50;;;6.30;99.90;;;;;;5071522;28;20036;-43
2022/12/21 06:18:32;;;;;;;2.22;1.65;;;6.30;99.90;;;;;;5071726;28;20547;-43
2022/12/21 06:20:58;;;;;;;2.45;1.77;;;6.30;99.90;;;;;;5071626;28;20025;-43
2022/12/21 06:23:24;;;;;;;5.38;2.00;;;6.30;99.90;;;;;;5071572;28;20470;-42
2022/12/21 06:25:56;;;;;;;3.47;1.77;;;6.30;99.90;;;;;;5071693;28;20449;-43
2022/12/21 06:28:23;;;;;;;2.97;1.88;;;6.30;99.90;;;;;;5071640;28;20031;-43
2022/12/21 06:30:50;;;;;;;2.08;1.63;;;6.30;99.90;;;;;;5071576;28;20100;-42
2022/12/21 06:33:17;;;;;;;2.63;1.63;;;6.30;99.90;;;;;;5071551;28;20063;-43
2022/12/21 06:35:43;;;;;;;4.93;1.85;;;6.30;99.90;;;;;;5071303;28;20028;-43
2022/12/21 06:38:08;;;;;;;2.28;1.60;;;6.30;99.90;;;;;;5071897;28;20105;-43
2022/12/21 06:40:34;;;;;;;2.80;1.70;;;6.20;99.90;;;;;;5071394;28;20518;-43
2022/12/21 06:42:59;;;;;;;3.28;1.85;;;6.30;99.90;;;;;;5071383;28;20051;-42
2022/12/21 06:45:25;;;;;;;3.38;1.73;;;6.20;99.90;;;;;;5071371;28;20363;-43
2022/12/21 06:47:54;;;;;;;2.83;1.70;;;6.20;99.90;;;;;;5071027;28;20028;-41
2022/12/21 06:50:23;;;;;;;2.25;1.60;;;6.30;99.90;;;;;;5071159;28;20417;-44
2022/12/21 06:52:49;;;;;;;3.50;1.90;;;6.30;99.90;;;;;;5071334;28;20044;-41
2022/12/21 06:55:15;;;;;;;3.25;1.70;;;6.20;99.90;;;;;;5071095;28;20464;-43
2022/12/21 06:57:42;;;;;;;3.08;2.00;;;6.20;99.90;;;;;;5070721;28;20096;-41
2022/12/21 07:00:13;;;;;;;5.28;2.00;;;6.30;99.90;;;;;;5071306;28;20032;-43
2022/12/21 07:02:39;;;;;;;1.90;1.55;;;6.30;99.90;;;;;;5071771;28;20020;-43
2022/12/21 07:05:05;;;;;;;2.13;1.70;;;6.30;99.90;;;;;;5071133;28;20024;-42
2022/12/21 07:07:30;;;;;;;2.92;1.77;;;6.20;99.90;;;;;;5071138;28;20017;-43
2022/12/21 07:09:56;;;;;;;2.15;1.67;;;6.20;99.90;;;;;;5071210;28;20024;-41
2022/12/21 07:12:21;;;;;;;2.03;1.48;;;6.30;99.90;;;;;;5071162;28;20382;-43
2022/12/21 07:14:47;;;;;;;2.72;1.80;;;6.30;99.90;;;;;;5071237;28;20021;-43
2022/12/21 07:17:15;;;;;;;2.47;1.75;;;6.30;99.90;;;;;;5070711;28;20386;-41
2022/12/21 07:19:41;;;;;;;2.35;1.75;;;6.30;99.90;;;;;;5071064;28;20028;-44
2022/12/21 07:22:07;;;;;;;3.25;1.90;;;6.30;99.90;;;;;;5071190;28;20077;-42
2022/12/21 07:24:32;;;;;;;5.28;2.28;;;6.30;99.90;;;;;;5071040;28;20479;-43
2022/12/21 07:26:58;;;;;;;3.50;1.60;;;6.20;99.90;;;;;;5070743;28;20024;-40
2022/12/21 07:29:23;;;;;;;2.85;1.73;;;6.30;99.90;;;;;;5070975;28;20020;-43
2022/12/21 07:31:50;;;;;;;3.55;1.80;;;6.30;99.90;;;;;;5070980;28;20028;-44
2022/12/21 07:34:16;;;;;;;2.78;1.60;;;6.30;99.90;;;;;;5070884;28;20035;-41
2022/12/21 07:36:45;;;;;;;2.75;1.67;;;6.30;99.90;;;;;;5070514;28;20390;-43
2022/12/21 07:39:10;;;;;;;3.80;1.77;;;6.30;99.90;;;;;;5070979;28;20055;-39
2022/12/21 07:41:36;;;;;;;3.70;1.67;;;6.30;99.90;;;;;;5070784;28;20490;-39
2022/12/21 07:44:01;;;;;;;5.45;1.85;;;6.30;99.90;;;;;;5070825;28;20104;-41
2022/12/21 07:46:27;;;;;;;4.70;2.15;;;6.40;99.90;;;;;;5070524;28;20417;-42
2022/12/21 07:48:53;;;;;;;3.53;1.95;;;6.40;99.90;;;;;;5070684;28;20025;-40
2022/12/21 07:51:18;;;;;;;5.45;2.35;;;6.40;99.90;;;;;;5070752;28;20021;-42
2022/12/21 07:53:44;;;;;;;3.38;2.10;;;6.40;99.90;;;;;;5070779;28;20024;-42
2022/12/21 07:56:20;;;;;;;4.78;2.30;;;6.40;99.90;;;;;;5070468;28;20035;-42
2022/12/21 07:58:46;;;;;;;4.88;2.20;;;6.40;99.90;;;;;;5071134;28;20025;-35
2022/12/21 08:01:14;;;;;;;5.75;2.00;;;6.40;99.90;;;;;;5070548;28;20058;-40
2022/12/21 08:03:41;;;;;;;3.50;2.15;;;6.40;99.90;;;;;;5070696;28;20048;-42
2022/12/21 08:06:08;;;;;;;4.35;2.67;;;6.40;99.90;;;;;;5070444;28;20024;-41
2022/12/21 08:08:37;;;;;;;5.70;2.30;;;6.40;99.90;;;;;;5070701;28;20070;-39
2022/12/21 08:11:03;;;;;;;8.38;2.30;;;6.40;99.90;;;;;;5072533;28;20486;-39
2022/12/21 08:13:29;;;;;;;6.97;2.10;;;6.40;99.90;;;;;;5074110;28;20032;-39
2022/12/21 08:16:05;;;;;;;4.78;2.10;;;6.40;99.90;;;;;;5073639;28;20031;-39
2022/12/21 08:18:32;;;;;;;5.60;2.03;;;6.30;99.90;;;;;;5074076;28;20036;-41
2022/12/21 08:20:58;;;;;;;5.65;2.00;;;6.30;99.90;;;;;;5073929;28;20484;-36
2022/12/21 08:23:24;;;;;;;4.18;2.28;;;6.40;99.90;;;;;;5073967;28;20055;-42
2022/12/21 08:25:52;;;;;;;4.63;2.10;;;6.40;99.90;;;;;;5073695;28;20048;-40
2022/12/21 08:28:18;;;;;;;2.45;1.90;;;6.40;99.90;;;;;;5073653;28;20021;-38
2022/12/21 08:30:44;;;;;;;3.70;2.28;;;6.40;99.90;;;;;;5073720;28;20028;-36
2022/12/21 08:33:09;;;;;;;4.72;1.98;;;6.40;99.90;;;;;;5073812;28;20068;-39
2022/12/21 08:35:36;;;;;;;3.45;2.17;;;6.40;99.90;;;;;;5073727;28;20032;-40
2022/12/21 08:38:02;;;;;;;5.35;2.22;;;6.40;99.90;;;;;;5073445;28;20494;-37
2022/12/21 08:40:27;;;;;;;3.33;2.28;;;6.30;99.90;;;;;;5073588;28;20063;-40
2022/12/21 08:42:53;;;;;;;5.65;2.22;;;6.40;99.90;;;;;;5073436;28;20024;-40
2022/12/21 08:45:19;;;;;;;3.25;2.10;;;6.40;99.90;;;;;;5073508;28;20023;-40
2022/12/21 08:47:47;;;;;;;3.22;1.92;;;6.40;99.90;;;;;;5073449;28;20047;-37
2022/12/21 08:50:13;;;;;;;4.22;2.20;;;6.40;99.90;;;;;;5073550;28;20067;-37
2022/12/21 08:52:39;;;;;;;3.45;2.17;;;6.40;99.90;;;;;;5073599;28;20051;-40
2022/12/21 08:55:04;;;;;;;4.13;2.05;;;6.40;99.90;;;;;;5073361;28;20068;-39
2022/12/21 08:57:30;;;;;;;4.95;2.15;;;6.30;99.90;;;;;;5072972;28;20450;-42
2022/12/21 08:59:56;;;;;;;4.10;2.33;;;6.30;99.90;;;;;;5073351;28;20049;-42
2022/12/21 09:02:21;;;;;;;5.13;2.35;;;6.40;99.90;;;;;;5073465;28;20028;-43
2022/12/21 09:04:47;;;;;;;3.13;1.90;;;6.40;99.90;;;;;;5073552;28;20016;-41
2022/12/21 09:07:13;;;;;;;2.90;1.90;;;6.40;99.90;;;;;;5073156;28;20025;-42
2022/12/21 09:09:38;;;;;;;3.75;2.33;;;6.40;99.90;;;;;;5073185;28;20074;-42
2022/12/21 09:12:04;;;;;;;6.03;2.10;;;6.40;99.90;;;;;;5073035;28;20029;-42
2022/12/21 09:14:30;;;;;;;3.45;2.00;;;6.40;99.90;;;;;;5073286;28;20039;-41
2022/12/21 09:16:56;;;;;;;2.97;2.28;;;6.40;99.90;;;;;;5072963;28;20064;-42
2022/12/21 09:19:22;;;;;;;4.15;2.20;;;6.40;99.90;;;;;;5072971;28;20021;-42
2022/12/21 09:21:47;;;;;;;3.13;2.25;;;6.40;99.90;;;;;;5072632;28;20425;-41
2022/12/21 09:24:13;;;;;;;5.28;2.22;;;6.40;99.90;;;;;;5072849;28;20020;-42
2022/12/21 09:26:41;;;;;;;2.42;1.95;;;6.40;99.90;;;;;;5072468;28;20103;-42
2022/12/21 09:29:08;;;;;;;2.55;2.30;;;6.40;99.90;;;;;;5073232;28;20020;-41
2022/12/21 09:31:34;;;;;;;3.33;2.22;;;6.40;99.90;;;;;;5072675;28;20460;-41
2022/12/21 09:33:59;;;;;;;3.65;2.20;;;6.40;99.90;;;;;;5072610;28;20062;-42
2022/12/21 09:36:25;;;;;;;2.88;1.95;;;6.40;99.90;;;;;;5072402;28;20091;-42
2022/12/21 09:38:51;;;;;;;4.03;2.08;;;6.40;99.90;;;;;;5072585;28;20021;-42
2022/12/21 09:41:28;;;;;;;4.15;1.90;;;6.40;99.90;;;;;;5072331;28;20051;-42
2022/12/21 09:44:13;;;;;;;3.53;2.25;;;6.40;99.90;;;;;;5072432;28;20123;-41
2022/12/21 09:46:44;;;;;;;4.38;2.33;;;6.40;99.90;;;;;;5072213;28;20024;-41
2022/12/21 09:49:25;;;;;;;3.15;2.08;;;6.40;99.90;;;;;;5072410;28;20032;-41
2022/12/21 09:51:59;;;;;;;3.10;2.17;;;6.50;99.90;;;;;;5072210;28;20021;-42
2022/12/21 09:54:31;;;;;;;2.65;2.22;;;6.40;99.90;;;;;;5072340;28;20029;-40
2022/12/21 09:57:06;;;;;;;4.32;2.28;;;6.50;99.90;;;;;;5071854;28;20024;-41
2022/12/21 09:59:32;;;;;;;4.05;2.22;;;6.40;99.90;;;;;;5072172;28;20363;-40
2022/12/21 10:02:37;;;;;;;3.85;2.42;;;6.40;99.90;;;;;;5072430;28;20074;-40
2022/12/21 10:05:41;;;;;;;5.93;3.63;;;6.40;99.90;;;;;;5072055;28;20024;-36
2022/12/21 10:08:44;;;;;;;9.10;4.13;;;6.50;99.90;;;;;;5060393;28;20470;-40
2022/12/21 10:11:25;;;;;;;7.40;4.53;;;6.60;99.90;;;;;;5071921;28;20386;-35
2022/12/21 10:14:03;;;;;;;7.97;4.10;;;6.60;99.90;;;;;;5071984;28;20024;-37
2022/12/21 10:16:56;;;;;;;7.57;4.88;;;6.70;99.90;;;;;;5071557;28;20451;-36
2022/12/21 10:19:46;;;;;;;8.43;4.38;;;6.70;99.90;;;;;;5071765;28;20063;-35
2022/12/21 10:22:31;;;;;;;5.22;3.88;;;6.70;99.90;;;;;;5071593;28;20025;-35
2022/12/21 10:25:00;;;;;;;5.70;4.10;;;6.70;99.90;;;;;;5071939;28;20103;-41
2022/12/21 10:28:01;;;;;;;7.40;4.35;;;6.80;99.90;;;;;;5071260;28;20023;-35
2022/12/21 10:30:30;;;;;;;4.90;3.53;;;6.80;99.90;;;;;;5060031;28;20032;-38
2022/12/21 10:32:59;;;;;;;6.45;3.92;;;6.80;99.90;;;;;;5071034;28;20017;-34
2022/12/21 10:35:38;;;;;;;7.13;4.03;;;6.80;99.90;;;;;;5071337;28;20149;-34
2022/12/21 10:38:14;;;;;;;7.07;4.57;;;6.80;99.90;;;;;;5071355;28;20024;-39
2022/12/21 10:40:48;;;;;;;6.57;4.38;;;6.90;99.90;;;;;;5071743;28;20485;-36
2022/12/21 10:43:14;;;;;;;7.63;4.22;;;6.90;99.90;;;;;;5071522;28;20040;-34
2022/12/21 10:45:46;;;;;;;17.20;5.22;;;6.90;99.90;;;;;;5071227;28;20103;-43
2022/12/21 10:48:12;;;;;;;8.77;5.63;;;7.00;99.90;;;;;;5071383;28;20478;-39
2022/12/21 10:50:42;;;;;;;8.32;5.60;;;7.10;99.90;;;;;;5070019;28;20109;-36
2022/12/21 10:53:25;;;;;;;9.00;5.10;;;7.20;99.90;;;;;;5071268;28;20020;-37
2022/12/21 10:55:58;;;;;;;9.27;5.50;;;7.30;99.90;;;;;;5071087;28;20032;-38
2022/12/21 10:58:31;;;;;;;7.15;4.70;;;7.30;99.90;;;;;;5071147;28;20103;-35
2022/12/21 11:01:02;;;;;;;11.88;5.07;;;7.40;99.90;;;;;;5071173;28;20032;-37
2022/12/21 11:03:39;;;;;;;9.50;5.40;;;7.50;99.90;;;;;;5071234;28;20028;-35
2022/12/21 11:06:36;;;;;;;7.50;4.80;;;7.50;99.90;;;;;;5070937;28;20025;-39
2022/12/21 11:09:02;;;;;;;12.10;5.63;;;7.60;99.90;;;;;;5070823;28;20044;-39
2022/12/21 11:11:34;;;;;;;7.38;4.82;;;7.70;99.90;;;;;;5071161;28;20032;-38
2022/12/21 11:14:10;;;;;;;7.85;4.18;;;7.70;99.90;;;;;;5071275;28;20025;-36
2022/12/21 11:16:35;;;;;;;9.82;4.57;;;7.80;99.90;;;;;;5070932;28;20309;-35
2022/12/21 11:19:08;;;;;;;7.43;4.05;;;7.90;99.90;;;;;;5071121;28;20486;-35
2022/12/21 11:21:36;;;;;;;4.28;3.10;;;7.90;99.90;;;;;;5071361;28;20043;-35
2022/12/21 11:24:10;;;;;;;5.68;3.25;;;8.00;99.90;;;;;;5071108;28;20416;-37
2022/12/21 11:26:44;;;;;;;9.07;3.45;;;8.00;99.90;;;;;;5070502;28;20528;-40
2022/12/21 11:29:19;;;;;;;5.43;3.60;;;8.10;99.90;;;;;;5071097;28;20027;-38
2022/12/21 11:31:45;;;;;;;6.90;3.80;;;8.10;99.90;;;;;;5070969;28;20029;-39
2022/12/21 11:34:24;;;;;;;5.18;3.13;;;8.20;99.90;;;;;;5070890;28;20111;-36
2022/12/21 11:36:59;;;;;;;6.07;3.40;;;8.20;99.90;;;;;;5070699;28;20067;-34
2022/12/21 11:39:25;;;;;;;4.85;3.30;;;8.30;99.90;;;;;;5071078;28;20060;-36
2022/12/21 11:41:53;;;;;;;6.25;3.40;;;8.30;99.90;;;;;;5070667;28;20060;-40
2022/12/21 11:44:28;;;;;;;11.63;3.63;;;8.40;99.90;;;;;;5069425;28;20032;-42
2022/12/21 11:47:21;;;;;;;14.82;4.07;;;8.40;99.90;;;;;;5073958;28;20032;-44
2022/12/21 11:50:05;;;;;;;4.55;2.70;;;8.50;99.90;;;;;;5074565;28;20028;-44
2022/12/21 11:52:34;;;;;;;4.60;2.65;;;8.50;99.90;;;;;;5074659;28;20043;-44
2022/12/21 11:55:23;;;;;;;5.32;3.00;;;8.60;99.90;;;;;;5074337;28;20047;-44
2022/12/21 11:57:52;;;;;;;4.22;2.50;;;8.60;99.90;;;;;;5074183;28;20327;-44
2022/12/21 12:00:22;;;;;;;3.90;2.30;;;8.70;99.90;;;;;;5074376;28;20028;-45
2022/12/21 12:02:50;;;;;;;3.22;2.33;;;8.70;99.90;;;;;;5074283;28;20021;-44
2022/12/21 12:05:37;;;;;;;4.90;2.55;;;8.80;99.90;;;;;;5074275;28;20443;-44
2022/12/21 12:08:20;;;;;;;4.45;2.25;;;8.80;99.90;;;;;;5074069;28;20078;-43
2022/12/21 12:11:23;;;;;;;7.43;2.70;;;8.90;99.90;;;;;;5074315;28;20451;-44
2022/12/21 12:13:58;;;;;;;4.25;2.65;;;9.00;99.90;;;;;;5074726;28;20255;-44
2022/12/21 12:16:41;;;;;;;5.22;2.92;;;9.00;99.90;;;;;;5073926;28;20036;-44
2022/12/21 12:19:07;;;;;;;4.50;2.63;;;9.10;99.90;;;;;;5074262;28;20040;-44
2022/12/21 12:21:53;;;;;;;4.22;2.80;;;9.10;99.90;;;;;;5073943;28;20036;-44
2022/12/21 12:24:43;;;;;;;4.70;2.28;;;9.20;99.90;;;;;;5074067;28;20031;-44
2022/12/21 12:27:41;;;;;;;3.72;2.65;;;9.20;99.90;;;;;;5073562;28;20020;-44
2022/12/21 12:30:20;;;;;;;3.83;2.70;;;9.20;99.90;;;;;;5073869;28;20491;-43
2022/12/21 12:33:01;;;;;;;4.50;2.92;;;9.30;99.90;;;;;;5072503;28;20519;-45
2022/12/21 12:35:45;;;;;;;5.53;3.20;;;9.30;99.90;;;;;;5073596;28;20032;-44
2022/12/21 12:38:21;;;;;;;6.07;3.10;;;9.30;99.90;;;;;;5073893;28;20032;-44
2022/12/21 12:40:56;;;;;;;8.38;3.17;;;9.40;99.90;;;;;;5073632;28;20025;-45
2022/12/21 12:43:37;;;;;;;;;;;9.30;99.90;;;;;;5074179;28;20397;-45
2022/12/21 12:46:37;;;;;;;3.70;2.40;;;9.30;99.90;;;;;;5073290;28;19908;-44
2022/12/21 12:49:03;;;;;;;3.15;2.42;;;9.30;99.90;;;;;;5070321;28;20029;-45
2022/12/21 12:51:35;;;;;;;3.25;2.40;;;9.30;99.90;;;;;;5073514;28;20367;-45
2022/12/21 12:54:27;;;;;;;3.47;2.50;;;9.30;99.90;;;;;;5071996;28;20059;-45
2022/12/21 12:57:00;;;;;;;4.18;2.35;;;9.30;99.90;;;;;;5066503;28;20037;-44
2022/12/21 12:59:49;;;;;;;6.35;2.50;;;9.30;99.90;;;;;;5073381;28;20033;-45
2022/12/21 13:02:20;;;;;;;3.20;2.20;;;9.30;99.90;;;;;;5073235;28;20025;-44
2022/12/21 13:04:55;;;;;;;5.90;2.45;;;9.20;99.90;;;;;;5073220;28;20485;-44
2022/12/21 13:07:23;;;;;;;;;;;9.30;99.90;;;;;;5073282;28;20024;-45
2022/12/21 13:09:48;;;;;;;2.95;1.80;;;9.20;99.90;;;;;;5073354;28;19904;-44
2022/12/21 13:12:35;;;;;;;2.40;1.60;;;9.30;99.90;;;;;;5073175;28;20113;-45
2022/12/21 13:16:05;;;;;;;3.60;2.15;;;9.30;99.90;;;;;;5072677;28;20103;-45
2022/12/21 13:18:37;;;;;;;2.95;2.17;;;9.30;99.90;;;;;;5030630;28;20120;-45
2022/12/21 13:21:05;;;;;;;3.88;2.42;;;9.30;99.90;;;;;;5065877;28;20042;-45
2022/12/21 13:23:47;;;;;;;3.65;2.35;;;9.30;99.90;;;;;;5072827;28;20104;-45
2022/12/21 13:26:19;;;;;;;4.05;2.20;;;9.30;99.90;;;;;;5072560;28;20551;-45
2022/12/21 13:28:57;;;;;;;4.63;2.08;;;9.30;99.90;;;;;;5072623;28;20046;-45
2022/12/21 13:31:34;;;;;;;3.88;2.05;;;9.30;99.90;;;;;;5072679;28;20103;-45